sensor_id;sensor_type;location;lat;lon;timestamp;temperature;humidity
3416;DHT22;1721;51.238;9.562;2022-09-09T00:04:41;15.50;99.90
3416;DHT22;1721;51.238;9.562;2022-09-09T00:07:15;15.60;99.90
3416;DHT22;1721;51.238;9.562;2022-09-09T00:09:51;15.80;99.90
3416;DHT22;1721;51.238;9.562;2022-09-09T00:12:36;15.90;99.90
3416;DHT22;1721;51.238;9.562;2022-09-09T00:15:12;15.90;99.90
3416;DHT22;1721;51.238;9.562;2022-09-09T00:17:50;15.70;99.90
3416;DHT22;1721;51.238;9.562;2022-09-09T00:23:02;16.00;99.90
3416;DHT22;1721;51.238;9.562;2022-09-09T00:28:33;16.10;99.90
3416;DHT22;1721;51.238;9.562;2022-09-09T00:31:16;16.00;99.70
3416;DHT22;1721;51.238;9.562;2022-09-09T00:33:46;15.60;99.90
3416;DHT22;1721;51.238;9.562;2022-09-09T00:36:15;15.80;99.90
3416;DHT22;1721;51.238;9.562;2022-09-09T00:38:46;16.20;99.90
3416;DHT22;1721;51.238;9.562;2022-09-09T00:41:22;16.40;99.80
3416;DHT22;1721;51.238;9.562;2022-09-09T00:46:56;16.70;99.10
3416;DHT22;1721;51.238;9.562;2022-09-09T00:52:22;16.40;99.50
3416;DHT22;1721;51.238;9.562;2022-09-09T00:55:07;16.50;99.30
3416;DHT22;1721;51.238;9.562;2022-09-09T00:57:35;16.50;99.00
3416;DHT22;1721;51.238;9.562;2022-09-09T01:05:36;16.00;99.90
3416;DHT22;1721;51.238;9.562;2022-09-09T01:08:12;16.20;99.90
3416;DHT22;1721;51.238;9.562;2022-09-09T01:10:50;16.40;99.60
3416;DHT22;1721;51.238;9.562;2022-09-09T01:13:28;16.40;99.10
3416;DHT22;1721;51.238;9.562;2022-09-09T01:15:58;16.50;99.40
3416;DHT22;1721;51.238;9.562;2022-09-09T01:18:29;16.60;99.20
3416;DHT22;1721;51.238;9.562;2022-09-09T01:24:15;16.40;99.30
3416;DHT22;1721;51.238;9.562;2022-09-09T01:26:48;16.50;99.70
3416;DHT22;1721;51.238;9.562;2022-09-09T01:29:17;16.70;99.50
3416;DHT22;1721;51.238;9.562;2022-09-09T01:32:02;16.40;99.10
3416;DHT22;1721;51.238;9.562;2022-09-09T01:34:35;16.50;99.90
3416;DHT22;1721;51.238;9.562;2022-09-09T01:37:09;16.80;99.50
3416;DHT22;1721;51.238;9.562;2022-09-09T01:39:37;16.70;99.30
3416;DHT22;1721;51.238;9.562;2022-09-09T01:42:06;16.70;99.40
3416;DHT22;1721;51.238;9.562;2022-09-09T01:44:32;16.90;99.10
3416;DHT22;1721;51.238;9.562;2022-09-09T01:46:58;17.00;98.90
3416;DHT22;1721;51.238;9.562;2022-09-09T01:49:24;17.10;98.70
3416;DHT22;1721;51.238;9.562;2022-09-09T01:51:53;17.00;98.60
3416;DHT22;1721;51.238;9.562;2022-09-09T01:54:20;17.00;98.70
3416;DHT22;1721;51.238;9.562;2022-09-09T01:57:23;16.90;98.90
3416;DHT22;1721;51.238;9.562;2022-09-09T02:00:06;16.80;99.10
3416;DHT22;1721;51.238;9.562;2022-09-09T02:02:36;16.70;99.40
3416;DHT22;1721;51.238;9.562;2022-09-09T02:05:38;16.60;99.30
3416;DHT22;1721;51.238;9.562;2022-09-09T02:08:17;16.50;99.70
3416;DHT22;1721;51.238;9.562;2022-09-09T02:10:58;16.60;99.70
3416;DHT22;1721;51.238;9.562;2022-09-09T02:13:29;16.60;99.50
3416;DHT22;1721;51.238;9.562;2022-09-09T02:16:42;16.80;99.30
3416;DHT22;1721;51.238;9.562;2022-09-09T02:19:24;17.00;98.90
3416;DHT22;1721;51.238;9.562;2022-09-09T02:21:54;17.10;98.20
3416;DHT22;1721;51.238;9.562;2022-09-09T02:24:21;17.00;98.00
3416;DHT22;1721;51.238;9.562;2022-09-09T02:26:50;16.90;98.50
3416;DHT22;1721;51.238;9.562;2022-09-09T02:29:22;16.90;98.60
3416;DHT22;1721;51.238;9.562;2022-09-09T02:31:49;16.70;98.70
3416;DHT22;1721;51.238;9.562;2022-09-09T02:34:18;16.50;99.50
3416;DHT22;1721;51.238;9.562;2022-09-09T02:36:46;16.40;99.30
3416;DHT22;1721;51.238;9.562;2022-09-09T02:39:13;16.30;99.70
3416;DHT22;1721;51.238;9.562;2022-09-09T02:41:42;16.40;99.70
3416;DHT22;1721;51.238;9.562;2022-09-09T02:44:12;16.20;99.90
3416;DHT22;1721;51.238;9.562;2022-09-09T02:52:32;16.40;99.90
3416;DHT22;1721;51.238;9.562;2022-09-09T02:55:06;16.20;99.70
3416;DHT22;1721;51.238;9.562;2022-09-09T02:57:35;16.50;99.90
3416;DHT22;1721;51.238;9.562;2022-09-09T03:00:03;16.40;99.90
3416;DHT22;1721;51.238;9.562;2022-09-09T03:02:29;16.20;99.90
3416;DHT22;1721;51.238;9.562;2022-09-09T03:04:54;16.60;99.90
3416;DHT22;1721;51.238;9.562;2022-09-09T03:07:20;16.50;99.90
3416;DHT22;1721;51.238;9.562;2022-09-09T03:09:46;16.50;99.90
3416;DHT22;1721;51.238;9.562;2022-09-09T03:12:12;16.60;99.60
3416;DHT22;1721;51.238;9.562;2022-09-09T03:14:38;16.50;99.80
3416;DHT22;1721;51.238;9.562;2022-09-09T03:17:04;16.40;99.90
3416;DHT22;1721;51.238;9.562;2022-09-09T03:19:30;16.50;99.70
3416;DHT22;1721;51.238;9.562;2022-09-09T03:21:57;16.70;99.30
3416;DHT22;1721;51.238;9.562;2022-09-09T03:24:22;16.40;99.50
3416;DHT22;1721;51.238;9.562;2022-09-09T03:26:48;16.30;99.90
3416;DHT22;1721;51.238;9.562;2022-09-09T03:29:14;16.30;99.90
3416;DHT22;1721;51.238;9.562;2022-09-09T03:31:40;16.60;99.90
3416;DHT22;1721;51.238;9.562;2022-09-09T03:34:06;16.90;99.90
3416;DHT22;1721;51.238;9.562;2022-09-09T03:36:32;17.10;99.50
3416;DHT22;1721;51.238;9.562;2022-09-09T03:38:58;17.10;98.90
3416;DHT22;1721;51.238;9.562;2022-09-09T03:41:24;17.10;99.20
3416;DHT22;1721;51.238;9.562;2022-09-09T03:43:50;17.10;98.90
3416;DHT22;1721;51.238;9.562;2022-09-09T03:46:17;17.00;99.00
3416;DHT22;1721;51.238;9.562;2022-09-09T03:48:43;17.10;99.10
3416;DHT22;1721;51.238;9.562;2022-09-09T03:51:09;16.80;98.90
3416;DHT22;1721;51.238;9.562;2022-09-09T03:53:35;17.00;98.90
3416;DHT22;1721;51.238;9.562;2022-09-09T03:56:03;16.70;98.80
3416;DHT22;1721;51.238;9.562;2022-09-09T03:58:35;16.50;99.10
3416;DHT22;1721;51.238;9.562;2022-09-09T04:01:06;16.40;99.70
3416;DHT22;1721;51.238;9.562;2022-09-09T04:03:34;16.40;99.40
3416;DHT22;1721;51.238;9.562;2022-09-09T04:06:01;16.40;99.50
3416;DHT22;1721;51.238;9.562;2022-09-09T04:08:28;16.60;99.20
3416;DHT22;1721;51.238;9.562;2022-09-09T04:10:56;16.40;99.50
3416;DHT22;1721;51.238;9.562;2022-09-09T04:13:24;16.40;99.00
3416;DHT22;1721;51.238;9.562;2022-09-09T04:15:54;16.10;99.40
3416;DHT22;1721;51.238;9.562;2022-09-09T04:18:20;16.40;99.60
3416;DHT22;1721;51.238;9.562;2022-09-09T04:20:47;16.50;99.40
3416;DHT22;1721;51.238;9.562;2022-09-09T04:23:14;16.50;99.10
3416;DHT22;1721;51.238;9.562;2022-09-09T04:25:47;16.30;99.30
3416;DHT22;1721;51.238;9.562;2022-09-09T04:28:14;16.10;99.30
3416;DHT22;1721;51.238;9.562;2022-09-09T04:30:40;15.90;99.50
3416;DHT22;1721;51.238;9.562;2022-09-09T04:33:07;16.00;99.90
3416;DHT22;1721;51.238;9.562;2022-09-09T04:35:33;16.10;99.50
3416;DHT22;1721;51.238;9.562;2022-09-09T04:37:59;16.10;99.70
3416;DHT22;1721;51.238;9.562;2022-09-09T04:40:24;16.10;99.30
3416;DHT22;1721;51.238;9.562;2022-09-09T04:42:51;16.20;99.50
3416;DHT22;1721;51.238;9.562;2022-09-09T04:45:16;16.40;99.20
3416;DHT22;1721;51.238;9.562;2022-09-09T04:47:42;16.50;99.30
3416;DHT22;1721;51.238;9.562;2022-09-09T04:50:08;16.50;99.00
3416;DHT22;1721;51.238;9.562;2022-09-09T04:52:35;16.50;98.70
3416;DHT22;1721;51.238;9.562;2022-09-09T04:55:01;16.20;98.80
3416;DHT22;1721;51.238;9.562;2022-09-09T04:57:26;16.00;99.30
3416;DHT22;1721;51.238;9.562;2022-09-09T04:59:52;15.90;99.80
3416;DHT22;1721;51.238;9.562;2022-09-09T05:02:18;16.00;99.90
3416;DHT22;1721;51.238;9.562;2022-09-09T05:04:43;16.10;99.50
3416;DHT22;1721;51.238;9.562;2022-09-09T05:07:09;16.20;99.90
3416;DHT22;1721;51.238;9.562;2022-09-09T05:09:34;16.40;99.50
3416;DHT22;1721;51.238;9.562;2022-09-09T05:12:00;16.30;99.10
3416;DHT22;1721;51.238;9.562;2022-09-09T05:14:26;16.10;99.70
3416;DHT22;1721;51.238;9.562;2022-09-09T05:16:52;16.00;99.60
3416;DHT22;1721;51.238;9.562;2022-09-09T05:19:17;16.00;99.90
3416;DHT22;1721;51.238;9.562;2022-09-09T05:21:45;16.00;99.80
3416;DHT22;1721;51.238;9.562;2022-09-09T05:24:11;16.00;99.80
3416;DHT22;1721;51.238;9.562;2022-09-09T05:26:36;15.80;99.70
3416;DHT22;1721;51.238;9.562;2022-09-09T05:29:02;15.70;99.70
3416;DHT22;1721;51.238;9.562;2022-09-09T05:31:29;15.80;99.90
3416;DHT22;1721;51.238;9.562;2022-09-09T05:33:55;15.80;99.90
3416;DHT22;1721;51.238;9.562;2022-09-09T05:36:22;15.90;99.90
3416;DHT22;1721;51.238;9.562;2022-09-09T05:38:48;16.00;99.90
3416;DHT22;1721;51.238;9.562;2022-09-09T05:41:15;16.10;99.70
3416;DHT22;1721;51.238;9.562;2022-09-09T05:43:42;16.10;99.90
3416;DHT22;1721;51.238;9.562;2022-09-09T05:46:18;16.10;99.50
3416;DHT22;1721;51.238;9.562;2022-09-09T05:48:45;16.10;99.70
3416;DHT22;1721;51.238;9.562;2022-09-09T05:51:20;16.30;99.70
3416;DHT22;1721;51.238;9.562;2022-09-09T05:53:47;16.10;99.90
3416;DHT22;1721;51.238;9.562;2022-09-09T05:56:21;16.20;99.70
3416;DHT22;1721;51.238;9.562;2022-09-09T05:58:48;16.60;99.70
3416;DHT22;1721;51.238;9.562;2022-09-09T06:01:22;16.60;99.30
3416;DHT22;1721;51.238;9.562;2022-09-09T06:03:50;16.60;99.20
3416;DHT22;1721;51.238;9.562;2022-09-09T06:06:26;16.70;99.40
3416;DHT22;1721;51.238;9.562;2022-09-09T06:08:54;16.40;99.70
3416;DHT22;1721;51.238;9.562;2022-09-09T06:11:20;16.80;99.40
3416;DHT22;1721;51.238;9.562;2022-09-09T06:13:47;16.70;99.30
3416;DHT22;1721;51.238;9.562;2022-09-09T06:16:15;16.80;99.70
3416;DHT22;1721;51.238;9.562;2022-09-09T06:18:42;17.00;99.00
3416;DHT22;1721;51.238;9.562;2022-09-09T06:21:19;17.10;99.00
3416;DHT22;1721;51.238;9.562;2022-09-09T06:23:45;17.10;99.10
3416;DHT22;1721;51.238;9.562;2022-09-09T06:26:17;16.90;99.10
3416;DHT22;1721;51.238;9.562;2022-09-09T06:28:44;17.10;99.50
3416;DHT22;1721;51.238;9.562;2022-09-09T06:31:12;17.00;99.30
3416;DHT22;1721;51.238;9.562;2022-09-09T06:33:40;17.20;99.10
3416;DHT22;1721;51.238;9.562;2022-09-09T06:36:15;17.20;99.30
3416;DHT22;1721;51.238;9.562;2022-09-09T06:38:41;17.30;99.10
3416;DHT22;1721;51.238;9.562;2022-09-09T06:41:08;17.40;98.50
3416;DHT22;1721;51.238;9.562;2022-09-09T06:43:34;17.30;99.00
3416;DHT22;1721;51.238;9.562;2022-09-09T06:46:21;17.60;98.90
3416;DHT22;1721;51.238;9.562;2022-09-09T06:48:47;17.60;98.60
3416;DHT22;1721;51.238;9.562;2022-09-09T06:51:18;17.70;98.80
3416;DHT22;1721;51.238;9.562;2022-09-09T06:53:46;17.80;99.30
3416;DHT22;1721;51.238;9.562;2022-09-09T06:56:25;18.20;98.80
3416;DHT22;1721;51.238;9.562;2022-09-09T06:58:53;18.50;98.10
3416;DHT22;1721;51.238;9.562;2022-09-09T07:01:25;18.60;97.90
3416;DHT22;1721;51.238;9.562;2022-09-09T07:03:52;18.70;97.50
3416;DHT22;1721;51.238;9.562;2022-09-09T07:06:24;18.60;97.80
3416;DHT22;1721;51.238;9.562;2022-09-09T07:08:52;18.50;97.40
3416;DHT22;1721;51.238;9.562;2022-09-09T07:11:19;18.60;97.70
3416;DHT22;1721;51.238;9.562;2022-09-09T07:13:45;18.50;97.70
3416;DHT22;1721;51.238;9.562;2022-09-09T07:16:13;18.40;97.10
3416;DHT22;1721;51.238;9.562;2022-09-09T07:18:39;18.60;97.70
3416;DHT22;1721;51.238;9.562;2022-09-09T07:21:05;18.90;97.30
3416;DHT22;1721;51.238;9.562;2022-09-09T07:23:32;19.10;97.20
3416;DHT22;1721;51.238;9.562;2022-09-09T07:25:58;18.80;96.70
3416;DHT22;1721;51.238;9.562;2022-09-09T07:28:25;18.30;96.90
3416;DHT22;1721;51.238;9.562;2022-09-09T07:30:55;18.00;97.60
3416;DHT22;1721;51.238;9.562;2022-09-09T07:33:21;17.80;98.00
3416;DHT22;1721;51.238;9.562;2022-09-09T07:35:47;17.90;98.30
3416;DHT22;1721;51.238;9.562;2022-09-09T07:38:12;18.10;98.30
3416;DHT22;1721;51.238;9.562;2022-09-09T07:40:38;18.40;98.20
3416;DHT22;1721;51.238;9.562;2022-09-09T07:43:04;18.40;98.00
3416;DHT22;1721;51.238;9.562;2022-09-09T07:45:30;18.60;98.60
3416;DHT22;1721;51.238;9.562;2022-09-09T07:47:58;18.80;98.30
3416;DHT22;1721;51.238;9.562;2022-09-09T07:50:23;19.20;97.70
3416;DHT22;1721;51.238;9.562;2022-09-09T07:52:51;19.30;97.00
3416;DHT22;1721;51.238;9.562;2022-09-09T07:55:17;19.40;96.70
3416;DHT22;1721;51.238;9.562;2022-09-09T07:57:42;19.50;96.90
3416;DHT22;1721;51.238;9.562;2022-09-09T08:00:08;19.60;96.80
3416;DHT22;1721;51.238;9.562;2022-09-09T08:02:35;19.50;95.80
3416;DHT22;1721;51.238;9.562;2022-09-09T08:05:01;19.40;96.60
3416;DHT22;1721;51.238;9.562;2022-09-09T08:07:27;19.40;96.20
3416;DHT22;1721;51.238;9.562;2022-09-09T08:09:53;19.30;97.10
3416;DHT22;1721;51.238;9.562;2022-09-09T08:12:21;19.50;96.90
3416;DHT22;1721;51.238;9.562;2022-09-09T08:14:46;19.70;96.60
3416;DHT22;1721;51.238;9.562;2022-09-09T08:17:12;19.50;96.40
3416;DHT22;1721;51.238;9.562;2022-09-09T08:19:37;19.40;96.40
3416;DHT22;1721;51.238;9.562;2022-09-09T08:22:03;19.30;96.10
3416;DHT22;1721;51.238;9.562;2022-09-09T08:24:29;19.00;96.50
3416;DHT22;1721;51.238;9.562;2022-09-09T08:26:54;18.80;97.40
3416;DHT22;1721;51.238;9.562;2022-09-09T08:29:22;19.00;97.20
3416;DHT22;1721;51.238;9.562;2022-09-09T08:31:58;19.00;96.70
3416;DHT22;1721;51.238;9.562;2022-09-09T08:34:25;18.90;96.50
3416;DHT22;1721;51.238;9.562;2022-09-09T08:36:52;18.90;97.20
3416;DHT22;1721;51.238;9.562;2022-09-09T08:39:20;19.30;97.50
3416;DHT22;1721;51.238;9.562;2022-09-09T08:42:07;19.50;97.30
3416;DHT22;1721;51.238;9.562;2022-09-09T08:50:17;19.80;97.20
3416;DHT22;1721;51.238;9.562;2022-09-09T08:53:05;19.70;97.20
3416;DHT22;1721;51.238;9.562;2022-09-09T08:55:45;19.90;96.50
3416;DHT22;1721;51.238;9.562;2022-09-09T08:58:34;19.90;95.70
3416;DHT22;1721;51.238;9.562;2022-09-09T09:03:34;20.40;95.00
3416;DHT22;1721;51.238;9.562;2022-09-09T09:11:51;20.40;94.70
3416;DHT22;1721;51.238;9.562;2022-09-09T09:14:22;20.40;94.00
3416;DHT22;1721;51.238;9.562;2022-09-09T09:16:59;20.10;94.10
3416;DHT22;1721;51.238;9.562;2022-09-09T09:19:28;20.00;94.30
3416;DHT22;1721;51.238;9.562;2022-09-09T09:22:20;20.00;94.10
3416;DHT22;1721;51.238;9.562;2022-09-09T09:24:51;19.70;94.40
3416;DHT22;1721;51.238;9.562;2022-09-09T09:27:30;19.80;95.00
3416;DHT22;1721;51.238;9.562;2022-09-09T09:29:58;20.10;94.80
3416;DHT22;1721;51.238;9.562;2022-09-09T09:32:24;20.30;94.10
3416;DHT22;1721;51.238;9.562;2022-09-09T09:34:55;20.20;94.40
3416;DHT22;1721;51.238;9.562;2022-09-09T09:37:34;20.20;93.40
3416;DHT22;1721;51.238;9.562;2022-09-09T09:40:19;20.50;93.60
3416;DHT22;1721;51.238;9.562;2022-09-09T09:42:57;20.90;93.50
3416;DHT22;1721;51.238;9.562;2022-09-09T09:47:58;21.30;92.20
3416;DHT22;1721;51.238;9.562;2022-09-09T09:50:24;21.60;92.20
3416;DHT22;1721;51.238;9.562;2022-09-09T09:52:57;21.90;93.40
3416;DHT22;1721;51.238;9.562;2022-09-09T09:55:24;22.10;92.20
3416;DHT22;1721;51.238;9.562;2022-09-09T09:57:51;22.20;91.60
3416;DHT22;1721;51.238;9.562;2022-09-09T10:00:22;22.00;91.10
3416;DHT22;1721;51.238;9.562;2022-09-09T10:02:49;22.00;90.30
3416;DHT22;1721;51.238;9.562;2022-09-09T10:05:25;22.20;91.20
3416;DHT22;1721;51.238;9.562;2022-09-09T10:08:08;22.50;91.00
3416;DHT22;1721;51.238;9.562;2022-09-09T10:13:14;22.20;91.10
3416;DHT22;1721;51.238;9.562;2022-09-09T10:22:19;22.10;87.00
3416;DHT22;1721;51.238;9.562;2022-09-09T10:27:20;22.30;87.90
3416;DHT22;1721;51.238;9.562;2022-09-09T10:32:55;22.30;89.20
3416;DHT22;1721;51.238;9.562;2022-09-09T10:38:42;22.40;85.20
3416;DHT22;1721;51.238;9.562;2022-09-09T10:47:00;22.10;85.70
3416;DHT22;1721;51.238;9.562;2022-09-09T10:55:28;22.00;83.80
3416;DHT22;1721;51.238;9.562;2022-09-09T10:58:00;22.20;85.50
3416;DHT22;1721;51.238;9.562;2022-09-09T11:00:43;22.20;86.70
3416;DHT22;1721;51.238;9.562;2022-09-09T11:03:29;22.00;85.20
3416;DHT22;1721;51.238;9.562;2022-09-09T11:06:04;21.80;84.60
3416;DHT22;1721;51.238;9.562;2022-09-09T11:08:32;21.80;85.30
3416;DHT22;1721;51.238;9.562;2022-09-09T11:14:11;21.70;86.20
3416;DHT22;1721;51.238;9.562;2022-09-09T11:17:01;21.80;85.40
3416;DHT22;1721;51.238;9.562;2022-09-09T11:19:36;21.60;84.50
3416;DHT22;1721;51.238;9.562;2022-09-09T11:22:35;21.20;84.10
3416;DHT22;1721;51.238;9.562;2022-09-09T11:25:26;20.90;85.40
3416;DHT22;1721;51.238;9.562;2022-09-09T11:30:56;21.20;87.10
3416;DHT22;1721;51.238;9.562;2022-09-09T11:38:58;21.80;85.80
3416;DHT22;1721;51.238;9.562;2022-09-09T11:41:33;21.80;86.20
3416;DHT22;1721;51.238;9.562;2022-09-09T11:43:59;22.00;86.40
3416;DHT22;1721;51.238;9.562;2022-09-09T11:46:37;22.10;86.00
3416;DHT22;1721;51.238;9.562;2022-09-09T11:49:05;22.10;85.20
3416;DHT22;1721;51.238;9.562;2022-09-09T11:51:33;22.10;83.90
3416;DHT22;1721;51.238;9.562;2022-09-09T11:54:46;22.00;83.70
3416;DHT22;1721;51.238;9.562;2022-09-09T11:56:46;22.10;85.20
3416;DHT22;1721;51.238;9.562;2022-09-09T11:59:23;22.10;87.50
3416;DHT22;1721;51.238;9.562;2022-09-09T12:01:59;22.10;88.30
3416;DHT22;1721;51.238;9.562;2022-09-09T12:04:57;22.40;89.30
3416;DHT22;1721;51.238;9.562;2022-09-09T12:07:31;22.70;89.40
3416;DHT22;1721;51.238;9.562;2022-09-09T12:12:33;22.90;87.80
3416;DHT22;1721;51.238;9.562;2022-09-09T12:17:42;22.40;86.40
3416;DHT22;1721;51.238;9.562;2022-09-09T12:28:22;21.20;86.90
3416;DHT22;1721;51.238;9.562;2022-09-09T12:31:08;21.00;86.40
3416;DHT22;1721;51.238;9.562;2022-09-09T12:33:37;21.00;86.30
3416;DHT22;1721;51.238;9.562;2022-09-09T12:36:12;21.00;85.20
3416;DHT22;1721;51.238;9.562;2022-09-09T12:38:40;21.20;84.50
3416;DHT22;1721;51.238;9.562;2022-09-09T12:41:19;21.30;85.40
3416;DHT22;1721;51.238;9.562;2022-09-09T12:43:45;21.60;84.50
3416;DHT22;1721;51.238;9.562;2022-09-09T12:46:24;21.60;83.60
3416;DHT22;1721;51.238;9.562;2022-09-09T12:48:52;21.60;84.80
3416;DHT22;1721;51.238;9.562;2022-09-09T12:51:24;21.50;84.10
3416;DHT22;1721;51.238;9.562;2022-09-09T12:53:51;21.20;86.90
3416;DHT22;1721;51.238;9.562;2022-09-09T12:56:26;20.90;87.30
3416;DHT22;1721;51.238;9.562;2022-09-09T12:58:53;20.60;86.60
3416;DHT22;1721;51.238;9.562;2022-09-09T13:01:31;20.60;87.20
3416;DHT22;1721;51.238;9.562;2022-09-09T13:03:57;20.90;88.00
3416;DHT22;1721;51.238;9.562;2022-09-09T13:06:25;21.30;87.30
3416;DHT22;1721;51.238;9.562;2022-09-09T13:08:54;21.70;87.40
3416;DHT22;1721;51.238;9.562;2022-09-09T13:11:35;22.00;86.10
3416;DHT22;1721;51.238;9.562;2022-09-09T13:14:04;22.30;84.30
3416;DHT22;1721;51.238;9.562;2022-09-09T13:16:32;22.30;84.30
3416;DHT22;1721;51.238;9.562;2022-09-09T13:19:13;22.50;83.50
3416;DHT22;1721;51.238;9.562;2022-09-09T13:21:40;22.50;84.50
3416;DHT22;1721;51.238;9.562;2022-09-09T13:24:22;22.20;82.20
3416;DHT22;1721;51.238;9.562;2022-09-09T13:27:04;22.20;83.60
3416;DHT22;1721;51.238;9.562;2022-09-09T13:29:31;22.10;83.20
3416;DHT22;1721;51.238;9.562;2022-09-09T13:32:05;22.10;84.20
3416;DHT22;1721;51.238;9.562;2022-09-09T13:34:35;22.10;84.80
3416;DHT22;1721;51.238;9.562;2022-09-09T13:37:05;21.70;83.60
3416;DHT22;1721;51.238;9.562;2022-09-09T13:39:34;21.70;83.50
3416;DHT22;1721;51.238;9.562;2022-09-09T13:42:02;21.70;84.10
3416;DHT22;1721;51.238;9.562;2022-09-09T13:44:35;21.80;83.90
3416;DHT22;1721;51.238;9.562;2022-09-09T13:47:05;21.20;83.60
3416;DHT22;1721;51.238;9.562;2022-09-09T13:49:31;21.00;85.40
3416;DHT22;1721;51.238;9.562;2022-09-09T13:52:13;21.00;85.60
3416;DHT22;1721;51.238;9.562;2022-09-09T13:54:39;21.00;86.10
3416;DHT22;1721;51.238;9.562;2022-09-09T13:57:13;21.00;85.40
3416;DHT22;1721;51.238;9.562;2022-09-09T13:59:39;21.20;86.30
3416;DHT22;1721;51.238;9.562;2022-09-09T14:02:04;21.30;84.30
3416;DHT22;1721;51.238;9.562;2022-09-09T14:04:30;21.50;83.10
3416;DHT22;1721;51.238;9.562;2022-09-09T14:06:56;21.40;83.80
3416;DHT22;1721;51.238;9.562;2022-09-09T14:09:21;21.70;83.10
3416;DHT22;1721;51.238;9.562;2022-09-09T14:11:47;21.90;82.90
3416;DHT22;1721;51.238;9.562;2022-09-09T14:14:12;22.00;82.80
3416;DHT22;1721;51.238;9.562;2022-09-09T14:16:38;21.90;82.00
3416;DHT22;1721;51.238;9.562;2022-09-09T14:19:04;21.80;83.10
3416;DHT22;1721;51.238;9.562;2022-09-09T14:21:29;21.50;83.30
3416;DHT22;1721;51.238;9.562;2022-09-09T14:23:55;21.50;81.80
3416;DHT22;1721;51.238;9.562;2022-09-09T14:26:23;21.70;80.90
3416;DHT22;1721;51.238;9.562;2022-09-09T14:28:49;21.90;81.50
3416;DHT22;1721;51.238;9.562;2022-09-09T14:31:15;22.00;81.20
3416;DHT22;1721;51.238;9.562;2022-09-09T14:33:43;21.80;79.80
3416;DHT22;1721;51.238;9.562;2022-09-09T14:36:09;22.00;80.20
3416;DHT22;1721;51.238;9.562;2022-09-09T14:38:36;22.00;80.80
3416;DHT22;1721;51.238;9.562;2022-09-09T14:41:08;22.10;80.40
3416;DHT22;1721;51.238;9.562;2022-09-09T14:43:34;22.30;79.80
3416;DHT22;1721;51.238;9.562;2022-09-09T14:46:07;22.50;80.40
3416;DHT22;1721;51.238;9.562;2022-09-09T14:48:33;22.20;79.40
3416;DHT22;1721;51.238;9.562;2022-09-09T14:51:08;22.10;81.40
3416;DHT22;1721;51.238;9.562;2022-09-09T14:53:34;22.30;80.20
3416;DHT22;1721;51.238;9.562;2022-09-09T14:58:31;22.30;80.30
3416;DHT22;1721;51.238;9.562;2022-09-09T15:01:05;22.00;78.50
3416;DHT22;1721;51.238;9.562;2022-09-09T15:03:32;22.00;77.90
3416;DHT22;1721;51.238;9.562;2022-09-09T15:05:57;22.00;77.90
3416;DHT22;1721;51.238;9.562;2022-09-09T15:08:26;22.10;78.60
3416;DHT22;1721;51.238;9.562;2022-09-09T15:10:59;22.00;78.00
3416;DHT22;1721;51.238;9.562;2022-09-09T15:13:25;21.90;77.00
3416;DHT22;1721;51.238;9.562;2022-09-09T15:15:50;21.80;77.70
3416;DHT22;1721;51.238;9.562;2022-09-09T15:18:16;21.80;77.00
3416;DHT22;1721;51.238;9.562;2022-09-09T15:20:45;21.70;77.70
3416;DHT22;1721;51.238;9.562;2022-09-09T15:23:12;21.40;76.60
3416;DHT22;1721;51.238;9.562;2022-09-09T15:25:37;21.50;77.30
3416;DHT22;1721;51.238;9.562;2022-09-09T15:28:03;21.40;77.70
3416;DHT22;1721;51.238;9.562;2022-09-09T15:30:28;21.20;78.00
3416;DHT22;1721;51.238;9.562;2022-09-09T15:32:54;21.30;78.30
3416;DHT22;1721;51.238;9.562;2022-09-09T15:35:20;21.30;80.00
3416;DHT22;1721;51.238;9.562;2022-09-09T15:37:46;21.40;78.30
3416;DHT22;1721;51.238;9.562;2022-09-09T15:40:11;21.50;78.10
3416;DHT22;1721;51.238;9.562;2022-09-09T15:42:37;21.60;79.60
3416;DHT22;1721;51.238;9.562;2022-09-09T15:45:03;21.50;79.30
3416;DHT22;1721;51.238;9.562;2022-09-09T15:47:31;21.40;79.20
3416;DHT22;1721;51.238;9.562;2022-09-09T15:49:57;21.20;79.70
3416;DHT22;1721;51.238;9.562;2022-09-09T15:52:23;21.20;79.60
3416;DHT22;1721;51.238;9.562;2022-09-09T15:54:48;21.20;79.30
3416;DHT22;1721;51.238;9.562;2022-09-09T15:57:14;21.20;80.50
3416;DHT22;1721;51.238;9.562;2022-09-09T15:59:39;20.90;80.00
3416;DHT22;1721;51.238;9.562;2022-09-09T16:02:05;21.00;80.80
3416;DHT22;1721;51.238;9.562;2022-09-09T16:04:31;21.20;80.50
3416;DHT22;1721;51.238;9.562;2022-09-09T16:07:02;21.10;80.30
3416;DHT22;1721;51.238;9.562;2022-09-09T16:09:29;21.10;80.50
3416;DHT22;1721;51.238;9.562;2022-09-09T16:11:59;21.00;81.00
3416;DHT22;1721;51.238;9.562;2022-09-09T16:14:32;20.90;81.10
3416;DHT22;1721;51.238;9.562;2022-09-09T16:17:02;21.00;81.50
3416;DHT22;1721;51.238;9.562;2022-09-09T16:19:27;21.10;81.10
3416;DHT22;1721;51.238;9.562;2022-09-09T16:21:53;21.10;80.70
3416;DHT22;1721;51.238;9.562;2022-09-09T16:24:19;21.00;81.80
3416;DHT22;1721;51.238;9.562;2022-09-09T16:26:48;20.90;81.90
3416;DHT22;1721;51.238;9.562;2022-09-09T16:29:15;20.80;80.90
3416;DHT22;1721;51.238;9.562;2022-09-09T16:31:41;20.90;81.10
3416;DHT22;1721;51.238;9.562;2022-09-09T16:34:08;21.10;81.20
3416;DHT22;1721;51.238;9.562;2022-09-09T16:36:36;21.10;80.20
3416;DHT22;1721;51.238;9.562;2022-09-09T16:39:05;20.80;80.20
3416;DHT22;1721;51.238;9.562;2022-09-09T16:41:32;20.80;79.90
3416;DHT22;1721;51.238;9.562;2022-09-09T16:44:01;20.50;80.80
3416;DHT22;1721;51.238;9.562;2022-09-09T16:46:29;20.60;80.20
3416;DHT22;1721;51.238;9.562;2022-09-09T16:48:59;20.40;80.70
3416;DHT22;1721;51.238;9.562;2022-09-09T16:51:28;20.50;81.80
3416;DHT22;1721;51.238;9.562;2022-09-09T16:53:55;20.50;80.60
3416;DHT22;1721;51.238;9.562;2022-09-09T16:56:25;20.30;81.10
3416;DHT22;1721;51.238;9.562;2022-09-09T16:58:56;20.40;81.50
3416;DHT22;1721;51.238;9.562;2022-09-09T17:01:27;20.40;81.90
3416;DHT22;1721;51.238;9.562;2022-09-09T17:03:57;20.10;81.50
3416;DHT22;1721;51.238;9.562;2022-09-09T17:06:23;20.30;81.80
3416;DHT22;1721;51.238;9.562;2022-09-09T17:08:54;20.00;81.80
3416;DHT22;1721;51.238;9.562;2022-09-09T17:11:19;19.90;82.10
3416;DHT22;1721;51.238;9.562;2022-09-09T17:13:46;19.90;82.50
3416;DHT22;1721;51.238;9.562;2022-09-09T17:16:13;20.00;81.90
3416;DHT22;1721;51.238;9.562;2022-09-09T17:18:39;20.20;82.30
3416;DHT22;1721;51.238;9.562;2022-09-09T17:21:07;20.20;82.40
3416;DHT22;1721;51.238;9.562;2022-09-09T17:23:34;20.20;82.10
3416;DHT22;1721;51.238;9.562;2022-09-09T17:26:04;19.80;83.20
3416;DHT22;1721;51.238;9.562;2022-09-09T17:28:31;19.50;84.20
3416;DHT22;1721;51.238;9.562;2022-09-09T17:30:57;19.30;84.90
3416;DHT22;1721;51.238;9.562;2022-09-09T17:33:25;19.20;85.50
3416;DHT22;1721;51.238;9.562;2022-09-09T17:35:52;19.00;86.20
3416;DHT22;1721;51.238;9.562;2022-09-09T17:38:18;18.80;86.60
3416;DHT22;1721;51.238;9.562;2022-09-09T17:40:43;18.80;87.40
3416;DHT22;1721;51.238;9.562;2022-09-09T17:43:09;18.80;86.80
3416;DHT22;1721;51.238;9.562;2022-09-09T17:45:35;18.70;86.90
3416;DHT22;1721;51.238;9.562;2022-09-09T17:48:00;18.90;86.90
3416;DHT22;1721;51.238;9.562;2022-09-09T17:50:26;18.80;87.30
3416;DHT22;1721;51.238;9.562;2022-09-09T17:52:51;18.80;87.30
3416;DHT22;1721;51.238;9.562;2022-09-09T17:55:17;19.00;87.30
3416;DHT22;1721;51.238;9.562;2022-09-09T17:57:43;19.00;86.80
3416;DHT22;1721;51.238;9.562;2022-09-09T18:00:09;18.90;86.70
3416;DHT22;1721;51.238;9.562;2022-09-09T18:02:35;18.80;87.60